Time;durP1;ratioP1;P1;durP2;ratioP2;P2;SDS_P1;SDS_P2;PMS_P1;PMS_P2;Temp;Humidity;BMP_temperature;BMP_pressure;BME280_temperature;BME280_humidity;BME280_pressure;Samples;Min_cycle;Max_cycle;Signal;HPM_P1;HPM_P2
2023/06/29 00:01:07;;;;;;;4.85;2.80;;;12.40;99.90;;;;;;5034379;28;20029;-55
2023/06/29 00:03:33;;;;;;;4.00;2.72;;;12.40;99.90;;;;;;5034350;28;20025;-54
2023/06/29 00:06:00;;;;;;;6.13;2.97;;;12.40;99.90;;;;;;5027096;28;20044;-53
2023/06/29 00:08:27;;;;;;;5.63;2.92;;;12.40;99.90;;;;;;5031098;28;20033;-54
2023/06/29 00:10:53;;;;;;;4.90;2.92;;;12.40;99.90;;;;;;5021173;28;20075;-55
2023/06/29 00:13:20;;;;;;;3.28;2.95;;;12.30;99.90;;;;;;5026730;28;20026;-54
2023/06/29 00:15:48;;;;;;;5.35;3.03;;;12.30;99.90;;;;;;5030746;28;20366;-54
2023/06/29 00:18:14;;;;;;;2.72;2.40;;;12.30;99.90;;;;;;5027361;28;20026;-55
2023/06/29 00:20:40;;;;;;;4.15;2.78;;;12.30;99.90;;;;;;5011471;28;20054;-53
2023/06/29 00:23:06;;;;;;;4.90;2.58;;;12.30;99.90;;;;;;5028502;28;20030;-54
2023/06/29 00:25:32;;;;;;;3.05;2.60;;;12.20;99.90;;;;;;5031171;28;20034;-55
2023/06/29 00:27:57;;;;;;;5.35;3.08;;;12.20;99.90;;;;;;5030995;28;20040;-56
2023/06/29 00:30:23;;;;;;;5.30;2.90;;;12.20;99.90;;;;;;5028837;28;20030;-55
2023/06/29 00:32:49;;;;;;;4.82;3.45;;;12.20;99.90;;;;;;5030168;28;20678;-54
2023/06/29 00:35:14;;;;;;;4.53;2.92;;;12.10;99.90;;;;;;5028496;28;20045;-52
2023/06/29 00:37:42;;;;;;;3.75;3.05;;;12.10;99.90;;;;;;5030534;28;20177;-54
2023/06/29 00:40:09;;;;;;;4.28;3.13;;;12.10;99.90;;;;;;5028872;28;20083;-53
2023/06/29 00:42:35;;;;;;;5.20;2.80;;;12.00;99.90;;;;;;5028264;28;20029;-55
2023/06/29 00:45:00;;;;;;;4.93;2.60;;;12.00;99.90;;;;;;5030676;28;20079;-53
2023/06/29 00:47:26;;;;;;;4.45;2.92;;;12.00;99.90;;;;;;5028310;28;20049;-56
2023/06/29 00:49:51;;;;;;;3.67;2.47;;;12.00;99.90;;;;;;5030743;28;20037;-54
2023/06/29 00:52:17;;;;;;;6.43;3.38;;;12.00;99.90;;;;;;5028341;28;20124;-55
2023/06/29 00:54:43;;;;;;;5.30;3.00;;;12.00;99.90;;;;;;5028402;28;20048;-55
2023/06/29 00:57:09;;;;;;;5.40;2.92;;;11.90;99.90;;;;;;5030068;28;20050;-55
2023/06/29 00:59:35;;;;;;;6.15;2.95;;;11.90;99.90;;;;;;5027933;28;20489;-54
2023/06/29 01:02:00;;;;;;;3.63;2.97;;;11.90;99.90;;;;;;5012359;28;20714;-54
2023/06/29 01:04:27;;;;;;;4.70;3.33;;;11.90;99.90;;;;;;5027588;28;20112;-53
2023/06/29 01:07:05;;;;;;;6.82;2.90;;;11.90;99.90;;;;;;5027278;28;20052;-54
2023/06/29 01:09:32;;;;;;;6.22;3.10;;;11.80;99.90;;;;;;5020288;28;20192;-55
2023/06/29 01:11:59;;;;;;;3.65;2.78;;;11.80;99.90;;;;;;5029976;28;20029;-54
2023/06/29 01:14:26;;;;;;;5.05;3.47;;;11.80;99.90;;;;;;5010184;28;20623;-55
2023/06/29 01:16:53;;;;;;;5.18;2.85;;;11.80;99.90;;;;;;5012409;28;20095;-56
2023/06/29 01:19:24;;;;;;;6.53;3.00;;;11.70;99.90;;;;;;5027551;28;20078;-54
2023/06/29 01:21:57;;;;;;;8.20;3.08;;;11.70;99.90;;;;;;5010342;28;20038;-55
2023/06/29 01:24:25;;;;;;;3.45;2.80;;;11.70;99.90;;;;;;5018584;28;20036;-56
2023/06/29 01:26:51;;;;;;;4.32;3.40;;;11.70;99.90;;;;;;5029617;28;20026;-55
2023/06/29 01:29:24;;;;;;;7.93;3.58;;;11.60;99.90;;;;;;5027671;28;20513;-55
2023/06/29 01:31:51;;;;;;;6.47;3.35;;;11.60;99.90;;;;;;5010243;28;20107;-51
2023/06/29 01:34:17;;;;;;;3.63;2.97;;;11.60;99.90;;;;;;5027243;28;20179;-54
2023/06/29 01:36:48;;;;;;;3.30;2.53;;;11.60;99.90;;;;;;5029556;28;20132;-56
2023/06/29 01:39:23;;;;;;;4.50;3.25;;;11.50;99.90;;;;;;5017295;28;20048;-56
2023/06/29 01:41:50;;;;;;;3.07;2.77;;;11.50;99.90;;;;;;5029500;28;20025;-55
2023/06/29 01:44:16;;;;;;;5.15;3.45;;;11.50;99.90;;;;;;5027374;28;20512;-54
2023/06/29 01:46:43;;;;;;;4.93;3.25;;;11.50;99.90;;;;;;5029274;28;20116;-56
2023/06/29 01:49:09;;;;;;;3.22;2.67;;;11.40;99.90;;;;;;5027409;28;20168;-54
2023/06/29 01:51:35;;;;;;;5.13;3.42;;;11.40;99.90;;;;;;5029025;28;20080;-56
2023/06/29 01:54:01;;;;;;;4.65;3.13;;;11.40;99.90;;;;;;5027166;28;20041;-57
2023/06/29 01:56:26;;;;;;;5.90;3.28;;;11.40;99.90;;;;;;5029066;28;20048;-54
2023/06/29 01:58:52;;;;;;;3.70;2.97;;;11.40;99.90;;;;;;5020683;28;20440;-55
2023/06/29 02:01:17;;;;;;;4.03;2.65;;;11.40;99.90;;;;;;5009596;28;20311;-54
2023/06/29 02:03:43;;;;;;;5.80;3.08;;;11.30;99.90;;;;;;5026683;28;20036;-56
2023/06/29 02:06:08;;;;;;;6.72;3.55;;;11.30;99.90;;;;;;5025975;28;20033;-56
2023/06/29 02:08:34;;;;;;;3.50;3.20;;;11.30;99.90;;;;;;5025632;28;20137;-53
2023/06/29 02:11:00;;;;;;;3.17;2.78;;;11.30;99.90;;;;;;5029179;28;20071;-54
2023/06/29 02:13:26;;;;;;;3.15;2.65;;;11.30;99.90;;;;;;5026873;28;20025;-54
2023/06/29 02:15:51;;;;;;;5.05;3.13;;;11.30;99.90;;;;;;5029143;28;20547;-60
2023/06/29 02:18:17;;;;;;;5.68;3.35;;;11.20;99.90;;;;;;5026997;28;20763;-59
2023/06/29 02:20:42;;;;;;;5.82;2.65;;;11.20;99.90;;;;;;5028988;28;20068;-59
2023/06/29 02:23:08;;;;;;;6.75;3.17;;;11.20;99.90;;;;;;5026686;28;20026;-59
2023/06/29 02:25:33;;;;;;;4.38;3.78;;;11.20;99.90;;;;;;5028960;28;20036;-59
2023/06/29 02:27:59;;;;;;;5.07;3.03;;;11.20;99.90;;;;;;5028754;28;20079;-59
2023/06/29 02:30:24;;;;;;;7.43;2.85;;;11.20;99.90;;;;;;5026752;28;20068;-58
2023/06/29 02:32:50;;;;;;;5.25;3.15;;;11.10;99.90;;;;;;5028672;28;20075;-60
2023/06/29 02:35:15;;;;;;;5.00;3.00;;;11.20;99.90;;;;;;5026063;28;20099;-59
2023/06/29 02:37:41;;;;;;;4.90;3.28;;;11.20;99.90;;;;;;5028526;28;20026;-59
2023/06/29 02:40:07;;;;;;;7.47;3.72;;;11.20;99.90;;;;;;5026530;28;20044;-58
2023/06/29 02:42:32;;;;;;;4.43;3.17;;;11.20;99.90;;;;;;5028395;28;20556;-59
2023/06/29 02:44:58;;;;;;;6.65;3.10;;;11.10;99.90;;;;;;5026539;28;20112;-58
2023/06/29 02:47:23;;;;;;;7.55;3.88;;;11.10;99.90;;;;;;5028337;28;20038;-59
2023/06/29 02:49:49;;;;;;;4.78;2.97;;;11.10;99.90;;;;;;5026512;28;20030;-60
2023/06/29 02:52:14;;;;;;;6.20;3.30;;;11.10;99.90;;;;;;5028317;28;20064;-59
2023/06/29 02:54:40;;;;;;;4.78;3.20;;;11.10;99.90;;;;;;5026036;28;20042;-58
2023/06/29 02:57:05;;;;;;;4.32;2.90;;;11.20;99.90;;;;;;5009960;28;20049;-60
2023/06/29 02:59:31;;;;;;;5.60;3.15;;;11.10;99.90;;;;;;5024526;28;20509;-59
2023/06/29 03:01:56;;;;;;;4.72;3.00;;;11.10;99.90;;;;;;5027814;28;20104;-58
2023/06/29 03:04:22;;;;;;;3.53;2.95;;;11.20;99.90;;;;;;5025522;28;20032;-58
2023/06/29 03:06:47;;;;;;;3.80;2.90;;;11.20;99.90;;;;;;5025011;28;20054;-59
2023/06/29 03:09:12;;;;;;;5.43;3.05;;;11.20;99.90;;;;;;5025858;28;20224;-56
2023/06/29 03:11:38;;;;;;;4.40;3.47;;;11.20;99.90;;;;;;5027507;28;20025;-60
2023/06/29 03:14:03;;;;;;;5.15;3.33;;;11.30;99.90;;;;;;5025651;28;20037;-58
2023/06/29 03:16:29;;;;;;;7.75;3.60;;;11.30;99.90;;;;;;5027743;28;20080;-58
2023/06/29 03:18:54;;;;;;;5.28;3.65;;;11.30;99.90;;;;;;5025899;28;20082;-59
2023/06/29 03:21:20;;;;;;;6.22;3.90;;;11.40;99.90;;;;;;5027667;28;20037;-60
2023/06/29 03:23:46;;;;;;;4.70;3.33;;;11.40;99.90;;;;;;5025660;28;20366;-58
2023/06/29 03:26:12;;;;;;;4.63;3.13;;;11.50;99.90;;;;;;5027724;28;20024;-58
2023/06/29 03:28:38;;;;;;;4.68;3.08;;;11.50;99.90;;;;;;5023543;28;20408;-59
2023/06/29 03:31:03;;;;;;;4.63;2.88;;;11.60;99.90;;;;;;5027937;28;20032;-58
2023/06/29 03:33:29;;;;;;;5.63;3.30;;;11.60;99.90;;;;;;5025818;28;20132;-59
2023/06/29 03:35:54;;;;;;;6.32;3.55;;;11.70;99.90;;;;;;5027843;28;20099;-59
2023/06/29 03:38:20;;;;;;;6.82;3.80;;;11.70;99.90;;;;;;5025639;28;20044;-59
2023/06/29 03:40:46;;;;;;;5.68;3.55;;;12.00;99.90;;;;;;5027803;28;20028;-59
2023/06/29 03:43:11;;;;;;;4.25;3.17;;;12.60;99.90;;;;;;5025560;28;20041;-58
2023/06/29 03:45:36;;;;;;;3.72;3.03;;;13.30;99.90;;;;;;5028315;28;20548;-59
2023/06/29 03:48:02;;;;;;;5.93;3.15;;;13.90;99.90;;;;;;5029632;28;20033;-58
2023/06/29 03:50:28;;;;;;;2.92;2.50;;;14.50;99.90;;;;;;5031823;28;20029;-53
2023/06/29 03:52:54;;;;;;;4.43;3.10;;;15.10;99.90;;;;;;5031720;28;20033;-59
2023/06/29 03:55:20;;;;;;;5.13;2.60;;;15.70;99.90;;;;;;5029589;28;20124;-58
2023/06/29 03:57:45;;;;;;;2.10;1.92;;;16.20;99.90;;;;;;5031396;28;20053;-59
2023/06/29 04:00:11;;;;;;;3.90;2.20;;;16.70;99.90;;;;;;5029594;28;20030;-59
2023/06/29 04:02:37;;;;;;;4.68;3.03;;;17.20;99.90;;;;;;5031679;28;20044;-58
2023/06/29 04:05:03;;;;;;;3.03;2.30;;;17.60;99.90;;;;;;5009015;28;20029;-59
2023/06/29 04:07:28;;;;;;;4.43;2.55;;;18.10;99.90;;;;;;5031773;28;20434;-58
2023/06/29 04:09:54;;;;;;;3.63;1.90;;;18.70;99.40;;;;;;5045455;28;20052;-58
2023/06/29 04:12:19;;;;;;;2.90;2.05;;;19.20;96.70;;;;;;5032112;28;20037;-58
2023/06/29 04:14:45;;;;;;;2.45;1.98;;;19.70;95.10;;;;;;5029310;28;20034;-59
2023/06/29 04:17:11;;;;;;;4.18;2.00;;;20.30;93.60;;;;;;5031166;28;20025;-58
2023/06/29 04:19:37;;;;;;;2.65;1.90;;;20.80;91.80;;;;;;5011323;28;20034;-58
2023/06/29 04:22:02;;;;;;;3.55;2.20;;;21.20;89.80;;;;;;5031318;28;20045;-59
2023/06/29 04:24:28;;;;;;;3.20;2.15;;;21.70;88.70;;;;;;5029442;28;20033;-59
2023/06/29 04:26:53;;;;;;;3.45;2.05;;;22.20;85.50;;;;;;5031093;28;20029;-58
2023/06/29 04:29:19;;;;;;;2.25;1.83;;;22.60;82.90;;;;;;5029273;28;20065;-58
2023/06/29 04:31:44;;;;;;;2.40;2.00;;;23.10;80.50;;;;;;5030958;28;20541;-59
2023/06/29 04:34:10;;;;;;;1.70;1.60;;;23.50;78.70;;;;;;5029027;28;20048;-58
2023/06/29 04:36:35;;;;;;;3.00;1.90;;;24.00;76.10;;;;;;5026966;28;20045;-59
2023/06/29 04:39:01;;;;;;;3.33;2.05;;;24.40;74.10;;;;;;5030253;28;20069;-59
2023/06/29 04:41:32;;;;;;;5.00;2.60;;;24.70;69.10;;;;;;5014010;28;20029;-59
2023/06/29 04:43:59;;;;;;;2.65;2.10;;;24.90;68.70;;;;;;5030977;28;20061;-59
2023/06/29 04:46:26;;;;;;;3.85;2.30;;;25.40;68.00;;;;;;5028590;28;20420;-58
2023/06/29 04:48:51;;;;;;;3.78;2.15;;;25.90;65.50;;;;;;5030828;28;20014;-59
2023/06/29 04:51:18;;;;;;;2.90;1.70;;;26.30;62.40;;;;;;5028629;28;20485;-60
2023/06/29 04:53:44;;;;;;;2.78;2.13;;;26.80;61.20;;;;;;5030644;28;20029;-59
2023/06/29 04:56:09;;;;;;;2.80;2.40;;;27.20;51.50;;;;;;5028479;28;20101;-59
2023/06/29 04:58:35;;;;;;;2.85;2.38;;;27.60;55.10;;;;;;5030045;28;20104;-59
2023/06/29 05:01:00;;;;;;;2.28;1.80;;;28.10;54.00;;;;;;5028341;28;20268;-59
2023/06/29 05:03:26;;;;;;;2.25;1.80;;;28.60;51.90;;;;;;5028482;28;20091;-59
2023/06/29 05:05:52;;;;;;;2.17;1.80;;;29.00;49.80;;;;;;5027181;28;20061;-59
2023/06/29 05:08:17;;;;;;;2.40;1.98;;;29.30;47.70;;;;;;5026933;28;20103;-58
2023/06/29 05:10:43;;;;;;;6.00;2.35;;;29.50;45.80;;;;;;5010526;28;20026;-58
2023/06/29 05:13:09;;;;;;;2.33;2.13;;;29.90;44.70;;;;;;5027188;28;20112;-58
2023/06/29 05:15:34;;;;;;;3.40;1.75;;;30.10;42.40;;;;;;5029996;28;20183;-59
2023/06/29 05:18:00;;;;;;;2.72;2.22;;;30.50;41.00;;;;;;5029862;28;20041;-58
2023/06/29 05:20:25;;;;;;;2.83;1.92;;;31.00;38.60;;;;;;5027962;28;20034;-58
2023/06/29 05:22:51;;;;;;;2.42;1.80;;;31.30;35.90;;;;;;5029894;28;20109;-59
2023/06/29 05:25:16;;;;;;;3.20;1.70;;;31.70;34.30;;;;;;5027845;28;20175;-58
2023/06/29 05:27:42;;;;;;;2.10;1.90;;;32.00;32.00;;;;;;5029662;28;20389;-59
2023/06/29 05:30:10;;;;;;;3.35;1.70;;;32.30;30.70;;;;;;5027726;28;20037;-57
2023/06/29 05:32:36;;;;;;;1.90;1.70;;;32.60;29.10;;;;;;5029454;28;20065;-58
2023/06/29 05:35:02;;;;;;;3.05;2.00;;;33.00;28.00;;;;;;5027692;28;20127;-58
2023/06/29 05:37:29;;;;;;;2.97;2.00;;;33.20;26.50;;;;;;5029483;28;20642;-58
2023/06/29 05:39:56;;;;;;;2.40;1.80;;;33.60;25.70;;;;;;5027452;28;20032;-59
2023/06/29 05:42:22;;;;;;;3.80;2.00;;;34.10;24.10;;;;;;5029328;28;20025;-59
2023/06/29 05:44:48;;;;;;;3.63;1.90;;;34.50;22.30;;;;;;4996030;28;20033;-58
2023/06/29 05:47:13;;;;;;;2.03;1.83;;;33.80;21.40;;;;;;5028754;28;20026;-58
2023/06/29 05:49:39;;;;;;;3.92;1.95;;;34.10;20.70;;;;;;5019158;28;20165;-58
2023/06/29 05:52:04;;;;;;;2.45;1.65;;;33.70;20.50;;;;;;5029382;28;20029;-58
2023/06/29 05:54:30;;;;;;;2.45;2.10;;;33.30;20.30;;;;;;5026819;28;20408;-58
2023/06/29 05:56:55;;;;;;;4.97;2.20;;;32.90;19.90;;;;;;5028728;28;20053;-58
2023/06/29 05:59:21;;;;;;;4.68;1.70;;;32.80;19.40;;;;;;5026866;28;20342;-58
2023/06/29 06:01:47;;;;;;;2.45;2.00;;;32.50;19.40;;;;;;5027200;28;20100;-58
2023/06/29 06:04:12;;;;;;;5.80;1.90;;;32.40;19.20;;;;;;5009690;28;20026;-58
2023/06/29 06:06:39;;;;;;;3.28;2.03;;;31.70;19.20;;;;;;5025672;28;20069;-58
2023/06/29 06:09:04;;;;;;;2.17;1.95;;;31.40;19.20;;;;;;5026479;28;20052;-59
2023/06/29 06:11:30;;;;;;;3.30;1.95;;;31.50;19.30;;;;;;5022850;28;20509;-58
2023/06/29 06:13:55;;;;;;;2.58;1.85;;;32.60;18.40;;;;;;5039685;28;20481;-59
2023/06/29 06:16:21;;;;;;;2.85;1.88;;;33.60;17.20;;;;;;5026893;28;20055;-58
2023/06/29 06:18:46;;;;;;;3.08;2.10;;;34.70;16.10;;;;;;5043932;28;20082;-58
2023/06/29 06:21:12;;;;;;;3.17;2.10;;;35.50;14.90;;;;;;5041361;28;20029;-55
2023/06/29 06:23:37;;;;;;;2.00;1.80;;;36.30;14.00;;;;;;5034834;28;20116;-56
2023/06/29 06:26:03;;;;;;;2.47;1.85;;;37.00;13.00;;;;;;5026787;28;20056;-49
2023/06/29 06:28:28;;;;;;;2.75;1.80;;;37.30;12.00;;;;;;5027765;28;20052;-53
2023/06/29 06:31:03;;;;;;;2.45;1.80;;;37.60;11.40;;;;;;5064223;28;20439;-52
2023/06/29 06:33:30;;;;;;;2.78;1.90;;;38.00;10.70;;;;;;5083774;28;20028;-56
2023/06/29 06:35:56;;;;;;;1.67;1.55;;;38.40;9.90;;;;;;5062097;28;20780;-57
2023/06/29 06:38:22;;;;;;;1.80;1.65;;;38.80;9.20;;;;;;5083723;28;20553;-56
2023/06/29 06:40:47;;;;;;;1.73;1.50;;;39.50;8.60;;;;;;5062937;28;20070;-57
2023/06/29 06:43:15;;;;;;;3.20;1.70;;;40.00;7.30;;;;;;5083488;28;20107;-57
2023/06/29 06:45:40;;;;;;;3.38;2.00;;;40.40;6.10;;;;;;5062442;28;20028;-56
2023/06/29 06:48:06;;;;;;;2.92;1.63;;;40.60;5.10;;;;;;5083355;28;20035;-52
2023/06/29 06:50:31;;;;;;;4.28;1.80;;;41.00;4.60;;;;;;5046817;28;20037;-57
2023/06/29 06:52:57;;;;;;;3.38;1.77;;;41.10;4.10;;;;;;5063856;28;20037;-55
2023/06/29 06:55:22;;;;;;;4.05;1.50;;;41.30;3.50;;;;;;5043297;28;20668;-56
2023/06/29 06:57:48;;;;;;;2.33;1.60;;;41.60;3.00;;;;;;5064323;28;20037;-57
2023/06/29 07:00:13;;;;;;;3.28;1.50;;;41.90;2.30;;;;;;5043610;28;20029;-56
2023/06/29 07:02:39;;;;;;;3.55;1.60;;;42.30;2.00;;;;;;5064323;28;20028;-57
2023/06/29 07:05:05;;;;;;;2.78;1.58;;;42.60;1.60;;;;;;5046327;28;20120;-57
2023/06/29 07:07:31;;;;;;;4.40;1.60;;;43.00;1.30;;;;;;5064757;28;20112;-57
2023/06/29 07:09:57;;;;;;;2.65;1.70;;;43.30;1.00;;;;;;5042492;28;20079;-57
2023/06/29 07:12:22;;;;;;;1.83;1.42;;;43.50;1.00;;;;;;5056049;28;20535;-57
2023/06/29 07:14:49;;;;;;;2.80;1.60;;;43.80;1.00;;;;;;5044847;28;20032;-55
2023/06/29 07:17:14;;;;;;;1.80;1.60;;;44.10;1.00;;;;;;5056361;28;20504;-56
2023/06/29 07:19:40;;;;;;;1.30;1.10;;;44.30;1.00;;;;;;5044474;28;20025;-56
2023/06/29 07:22:05;;;;;;;1.30;1.20;;;44.60;1.00;;;;;;5057396;28;20029;-57
2023/06/29 07:24:31;;;;;;;3.78;1.73;;;44.70;1.00;;;;;;5044558;28;20036;-56
2023/06/29 07:26:56;;;;;;;2.58;1.42;;;44.80;1.00;;;;;;5058579;28;20025;-56
2023/06/29 07:29:22;;;;;;;2.50;1.60;;;44.50;1.00;;;;;;5049501;28;20033;-56
2023/06/29 07:31:47;;;;;;;2.17;1.60;;;44.00;1.00;;;;;;5062368;28;20028;-57
2023/06/29 07:34:13;;;;;;;2.22;1.35;;;43.00;1.00;;;;;;5064138;28;20090;-56
2023/06/29 07:36:39;;;;;;;1.48;1.20;;;43.10;1.00;;;;;;5061202;28;20643;-56
2023/06/29 07:39:05;;;;;;;2.85;1.60;;;43.50;1.00;;;;;;5042250;28;20037;-58
2023/06/29 07:41:31;;;;;;;2.70;1.50;;;43.60;1.00;;;;;;5035648;28;20036;-58
2023/06/29 07:43:57;;;;;;;1.83;1.60;;;43.80;1.00;;;;;;5042018;28;20423;-57
2023/06/29 07:46:23;;;;;;;1.52;1.40;;;44.00;1.00;;;;;;5030963;28;20033;-57
2023/06/29 07:48:50;;;;;;;1.58;1.30;;;44.10;1.00;;;;;;5042962;28;20029;-57
2023/06/29 07:51:16;;;;;;;5.05;1.70;;;44.20;1.00;;;;;;5030886;28;20109;-57
2023/06/29 07:53:43;;;;;;;2.63;1.60;;;44.20;1.00;;;;;;5047792;28;20017;-57
2023/06/29 07:56:08;;;;;;;2.85;1.40;;;44.20;1.00;;;;;;5050582;28;20029;-58
2023/06/29 07:58:34;;;;;;;1.80;1.50;;;43.40;1.00;;;;;;5029115;28;20095;-57
2023/06/29 08:01:00;;;;;;;1.63;1.40;;;42.70;1.00;;;;;;5030660;28;20112;-56
2023/06/29 08:03:25;;;;;;;3.03;1.63;;;42.80;1.00;;;;;;5045997;28;20086;-57
2023/06/29 08:05:52;;;;;;;4.72;1.65;;;41.80;1.00;;;;;;5036790;28;20432;-58
2023/06/29 08:08:18;;;;;;;2.47;1.77;;;40.70;1.00;;;;;;5028920;28;20022;-57
2023/06/29 08:10:43;;;;;;;2.95;1.70;;;39.60;1.00;;;;;;5030445;28;20033;-56
2023/06/29 08:13:09;;;;;;;2.80;1.63;;;38.30;1.00;;;;;;5049544;28;20025;-57
2023/06/29 08:15:34;;;;;;;5.80;1.70;;;37.10;1.00;;;;;;5028837;28;20524;-56
2023/06/29 08:18:00;;;;;;;3.28;1.48;;;36.00;1.00;;;;;;5049340;28;20025;-56
2023/06/29 08:20:25;;;;;;;3.13;1.70;;;35.00;1.30;;;;;;5028723;28;20068;-57
2023/06/29 08:22:52;;;;;;;3.20;1.55;;;34.20;1.90;;;;;;5049444;28;20566;-57
2023/06/29 08:25:19;;;;;;;3.72;1.20;;;33.50;2.30;;;;;;5028653;28;20061;-56
2023/06/29 08:27:44;;;;;;;2.92;1.10;;;33.20;2.60;;;;;;5049277;28;20037;-56
2023/06/29 08:30:10;;;;;;;1.50;1.02;;;32.70;2.80;;;;;;5028452;28;20386;-55
2023/06/29 08:32:35;;;;;;;1.23;1.13;;;32.30;3.20;;;;;;5049023;28;20055;-56
2023/06/29 08:35:01;;;;;;;1.90;1.15;;;32.30;3.40;;;;;;5028681;28;20489;-56
2023/06/29 08:37:28;;;;;;;2.05;1.65;;;32.60;3.30;;;;;;5049023;28;20036;-57
2023/06/29 08:39:56;;;;;;;2.78;1.77;;;33.60;3.10;;;;;;5028295;28;20035;-57
2023/06/29 08:42:23;;;;;;;1.77;1.63;;;34.40;2.90;;;;;;5049255;28;20052;-56
2023/06/29 08:44:49;;;;;;;2.42;1.83;;;34.50;3.00;;;;;;5028309;28;20112;-56
2023/06/29 08:47:16;;;;;;;2.00;1.55;;;33.90;3.10;;;;;;5048976;28;20057;-55
2023/06/29 08:49:42;;;;;;;2.63;1.40;;;33.20;3.50;;;;;;5027920;28;20118;-56
2023/06/29 08:52:15;;;;;;;1.45;1.35;;;32.60;3.90;;;;;;5048134;28;20128;-56
2023/06/29 08:54:41;;;;;;;2.13;1.40;;;32.20;4.20;;;;;;5031676;28;20499;-57
2023/06/29 08:57:07;;;;;;;1.60;1.30;;;32.20;4.70;;;;;;5049191;28;20037;-56
2023/06/29 08:59:33;;;;;;;2.45;1.35;;;32.50;5.00;;;;;;5027934;28;20033;-57
2023/06/29 09:01:59;;;;;;;2.20;1.35;;;33.00;5.20;;;;;;5048621;28;20480;-55
2023/06/29 09:04:25;;;;;;;2.97;1.30;;;33.40;5.00;;;;;;5027968;28;20072;-54
2023/06/29 09:06:54;;;;;;;1.52;1.15;;;33.70;4.70;;;;;;5046697;28;20033;-57
2023/06/29 09:09:20;;;;;;;1.73;1.20;;;33.80;4.60;;;;;;5027364;28;20528;-57
2023/06/29 09:11:46;;;;;;;1.25;0.80;;;34.10;4.90;;;;;;5048439;28;20033;-55
2023/06/29 09:14:11;;;;;;;1.20;0.85;;;34.20;4.50;;;;;;5027886;28;20048;-57
2023/06/29 09:16:52;;;;;;;1.20;1.00;;;34.30;4.20;;;;;;5048205;28;20025;-58
2023/06/29 09:19:18;;;;;;;0.73;0.70;;;34.60;2.70;;;;;;5016160;28;20144;-56
2023/06/29 09:21:47;;;;;;;1.13;0.77;;;35.00;3.90;;;;;;5048294;28;20029;-54
2023/06/29 09:24:14;;;;;;;0.80;0.73;;;35.20;3.40;;;;;;5026901;28;20029;-57
2023/06/29 09:26:40;;;;;;;0.70;0.70;;;34.90;2.90;;;;;;5048268;28;20036;-57
2023/06/29 09:29:06;;;;;;;1.27;0.70;;;34.70;2.80;;;;;;5027156;28;20687;-55
2023/06/29 09:31:35;;;;;;;1.13;0.70;;;34.70;2.80;;;;;;5028899;28;20025;-57
2023/06/29 09:34:20;;;;;;;1.10;0.65;;;34.70;2.80;;;;;;5040163;28;20080;-56
2023/06/29 09:36:47;;;;;;;;;;;34.60;2.10;;;;;;5029333;28;20021;-54
2023/06/29 09:39:12;;;;;;;0.55;0.55;;;34.30;2.60;;;;;;5037826;28;19909;-56
2023/06/29 09:41:56;;;;;;;0.95;0.70;;;33.90;2.80;;;;;;5047766;28;20033;-56
2023/06/29 09:44:24;;;;;;;2.63;0.80;;;33.60;3.40;;;;;;5027118;28;20040;-54
2023/06/29 09:47:03;;;;;;;0.73;0.68;;;33.30;3.50;;;;;;5048175;28;20029;-54
2023/06/29 09:49:29;;;;;;;1.45;1.10;;;33.00;3.50;;;;;;5016950;28;20045;-57
2023/06/29 09:52:04;;;;;;;1.05;0.95;;;32.70;3.80;;;;;;5047792;28;20079;-55
2023/06/29 09:54:37;;;;;;;1.13;0.80;;;32.60;4.30;;;;;;5026783;28;20028;-53
2023/06/29 09:57:03;;;;;;;0.98;0.60;;;32.50;4.40;;;;;;5047745;28;20071;-56
2023/06/29 09:59:33;;;;;;;1.75;0.80;;;32.30;4.20;;;;;;5026821;28;20030;-55
2023/06/29 10:01:59;;;;;;;1.40;1.00;;;32.10;4.70;;;;;;5008634;28;20045;-52
2023/06/29 10:04:25;;;;;;;1.75;0.80;;;32.00;4.70;;;;;;5034956;28;20030;-54
2023/06/29 10:06:59;;;;;;;2.97;0.90;;;31.80;4.90;;;;;;5043035;28;20061;-56
2023/06/29 10:09:25;;;;;;;1.23;0.80;;;31.80;5.30;;;;;;5016400;28;20038;-56
2023/06/29 10:11:53;;;;;;;1.73;0.70;;;31.60;5.20;;;;;;5047280;28;20035;-55
2023/06/29 10:14:20;;;;;;;1.08;0.88;;;31.40;5.30;;;;;;5026481;28;20065;-54
2023/06/29 10:16:48;;;;;;;1.17;0.80;;;31.20;5.80;;;;;;5047508;28;20040;-55
2023/06/29 10:19:18;;;;;;;1.10;0.90;;;31.10;5.90;;;;;;5026263;28;20397;-56
2023/06/29 10:21:45;;;;;;;2.45;1.10;;;30.80;6.10;;;;;;5046459;28;20129;-56
2023/06/29 10:24:15;;;;;;;2.85;1.17;;;30.80;6.30;;;;;;5026580;28;20128;-56
2023/06/29 10:26:42;;;;;;;1.92;1.00;;;30.80;6.20;;;;;;5047767;28;20043;-56
2023/06/29 10:29:09;;;;;;;2.83;1.13;;;30.80;6.80;;;;;;5026271;28;20049;-56
2023/06/29 10:31:34;;;;;;;1.45;1.20;;;30.70;7.00;;;;;;5027982;28;20022;-57
2023/06/29 10:34:00;;;;;;;2.70;1.23;;;30.70;7.20;;;;;;5038620;28;20040;-56
2023/06/29 10:36:42;;;;;;;2.05;1.17;;;30.70;7.50;;;;;;5028065;28;20021;-55
2023/06/29 10:39:37;;;;;;;1.85;1.08;;;30.90;7.40;;;;;;5013908;28;20122;-55
2023/06/29 10:42:07;;;;;;;1.52;1.23;;;30.90;8.10;;;;;;5027817;28;20079;-56
2023/06/29 10:44:37;;;;;;;2.83;0.93;;;31.00;7.20;;;;;;5017295;28;20614;-56
2023/06/29 10:47:03;;;;;;;1.35;1.00;;;31.00;7.10;;;;;;5047164;28;20377;-57
2023/06/29 10:49:28;;;;;;;1.92;1.10;;;31.10;7.20;;;;;;5026149;28;20048;-56
2023/06/29 10:52:04;;;;;;;1.48;1.10;;;30.90;7.50;;;;;;5047048;28;20028;-57
2023/06/29 10:54:30;;;;;;;2.13;1.02;;;31.00;8.00;;;;;;5016557;28;20448;-57
2023/06/29 10:57:07;;;;;;;1.42;1.00;;;31.10;7.40;;;;;;5046852;28;20123;-57
2023/06/29 10:59:34;;;;;;;3.22;0.82;;;31.20;7.40;;;;;;5017042;28;20021;-56
2023/06/29 11:02:00;;;;;;;1.10;0.82;;;31.40;7.20;;;;;;5047019;28;20123;-57
2023/06/29 11:04:27;;;;;;;1.17;0.80;;;31.40;7.00;;;;;;5026185;28;20045;-55
2023/06/29 11:06:53;;;;;;;2.25;1.17;;;31.50;7.00;;;;;;5042265;28;20396;-55
2023/06/29 11:09:19;;;;;;;0.98;0.93;;;31.50;7.00;;;;;;5026317;28;20041;-58
2023/06/29 11:11:47;;;;;;;1.83;1.15;;;31.40;7.00;;;;;;5046778;28;20041;-56
2023/06/29 11:14:13;;;;;;;2.83;1.45;;;31.40;7.10;;;;;;5034148;28;20056;-55
2023/06/29 11:16:39;;;;;;;3.95;1.20;;;31.20;7.10;;;;;;5049172;28;20370;-53
2023/06/29 11:19:06;;;;;;;1.75;1.20;;;31.20;7.20;;;;;;5029926;28;20030;-56
2023/06/29 11:21:31;;;;;;;1.40;1.20;;;31.20;7.20;;;;;;5030067;28;20733;-57
2023/06/29 11:23:57;;;;;;;1.70;0.95;;;31.00;7.60;;;;;;5042534;28;20036;-55
2023/06/29 11:26:23;;;;;;;1.58;1.13;;;30.80;7.70;;;;;;5031170;28;20076;-56
2023/06/29 11:28:52;;;;;;;3.05;1.20;;;30.70;7.90;;;;;;5043407;28;20029;-55
2023/06/29 11:31:19;;;;;;;1.67;1.17;;;30.60;8.10;;;;;;5030977;28;20029;-55
2023/06/29 11:33:49;;;;;;;4.93;1.27;;;30.40;7.80;;;;;;5044190;28;20107;-55
2023/06/29 11:36:14;;;;;;;1.52;1.13;;;30.20;8.00;;;;;;5031200;28;20045;-56
2023/06/29 11:38:40;;;;;;;2.70;1.10;;;30.00;8.30;;;;;;5044616;28;20017;-56
2023/06/29 11:41:06;;;;;;;1.38;0.93;;;29.90;8.40;;;;;;5029681;28;20030;-55
2023/06/29 11:43:31;;;;;;;1.85;1.02;;;29.80;8.50;;;;;;5047874;28;20456;-57
2023/06/29 11:45:57;;;;;;;2.88;1.25;;;29.70;8.80;;;;;;5051034;28;20020;-54
2023/06/29 11:48:23;;;;;;;1.65;1.15;;;29.60;9.10;;;;;;5029328;28;20026;-55
2023/06/29 11:50:48;;;;;;;1.42;1.20;;;29.50;9.20;;;;;;5031004;28;20588;-55
2023/06/29 11:53:15;;;;;;;2.13;1.23;;;29.50;9.40;;;;;;5045377;28;20233;-54
2023/06/29 11:55:53;;;;;;;1.73;1.15;;;29.50;9.50;;;;;;5031103;28;20025;-55
2023/06/29 11:58:18;;;;;;;3.22;1.10;;;29.60;10.50;;;;;;5012597;28;20017;-57
2023/06/29 12:00:44;;;;;;;1.60;0.82;;;29.60;9.70;;;;;;5026174;28;20503;-55
2023/06/29 12:03:10;;;;;;;2.28;1.10;;;29.60;9.50;;;;;;5030152;28;20025;-56
2023/06/29 12:05:40;;;;;;;1.50;1.13;;;29.50;9.70;;;;;;5023445;28;20545;-55
2023/06/29 12:08:08;;;;;;;1.30;1.15;;;29.40;9.70;;;;;;5049987;28;20017;-56
2023/06/29 12:10:36;;;;;;;2.35;1.50;;;29.40;9.50;;;;;;5036114;28;20605;-56
2023/06/29 12:13:02;;;;;;;2.95;1.50;;;29.10;9.60;;;;;;5050448;28;20526;-53
2023/06/29 12:15:31;;;;;;;1.77;1.45;;;28.70;10.00;;;;;;5028955;28;20030;-57
2023/06/29 12:18:07;;;;;;;1.70;1.35;;;28.70;10.10;;;;;;5030497;28;20025;-56
2023/06/29 12:20:38;;;;;;;2.53;1.30;;;28.70;10.60;;;;;;5047609;28;20044;-53
2023/06/29 12:23:03;;;;;;;2.03;1.40;;;28.80;10.70;;;;;;5050215;28;20037;-56
2023/06/29 12:25:28;;;;;;;2.05;1.50;;;28.90;10.60;;;;;;5041308;28;20083;-54
2023/06/29 12:27:54;;;;;;;2.70;1.35;;;28.90;10.40;;;;;;5030119;28;20040;-55
2023/06/29 12:30:21;;;;;;;1.58;1.15;;;28.90;10.30;;;;;;5041640;28;20444;-55
2023/06/29 12:32:48;;;;;;;1.90;1.38;;;28.80;10.50;;;;;;5030033;28;20531;-54
2023/06/29 12:35:14;;;;;;;2.78;1.50;;;28.80;10.80;;;;;;5042911;28;20021;-55
2023/06/29 12:37:40;;;;;;;2.13;1.23;;;28.90;10.70;;;;;;5030144;28;20093;-56
2023/06/29 12:40:06;;;;;;;2.08;1.30;;;29.10;10.60;;;;;;5043799;28;20041;-55
2023/06/29 12:42:32;;;;;;;1.42;1.33;;;29.20;10.70;;;;;;5026218;28;20032;-52
2023/06/29 12:44:59;;;;;;;2.42;1.30;;;29.30;10.70;;;;;;5017815;28;20036;-56
2023/06/29 12:47:24;;;;;;;2.90;1.40;;;29.30;10.50;;;;;;5040976;28;20112;-56